createdAt,value
2023-07-24T00:09:23.191Z,13.00
2023-07-24T00:12:12.840Z,12.52
2023-07-24T00:15:00.468Z,14.63
2023-07-24T00:17:47.970Z,11.93
2023-07-24T00:20:35.229Z,12.48
2023-07-24T00:23:26.482Z,11.38
2023-07-24T00:40:52.683Z,12.77
2023-07-24T00:43:40.027Z,13.27
2023-07-24T00:46:27.635Z,13.57
2023-07-24T00:49:15.095Z,14.80
2023-07-24T00:52:02.477Z,13.23
2023-07-24T00:54:50.693Z,14.55
2023-07-24T00:57:38.385Z,16.65
2023-07-24T01:00:25.847Z,14.60
2023-07-24T01:03:13.691Z,15.90
2023-07-24T01:06:03.257Z,15.00
2023-07-24T01:08:52.272Z,17.13
2023-07-24T01:11:44.926Z,18.52
2023-07-24T01:14:41.419Z,16.30
2023-07-24T01:17:34.837Z,22.52
2023-07-24T01:20:25.013Z,18.75
2023-07-24T01:23:32.120Z,21.73
2023-07-24T01:26:20.206Z,19.83
2023-07-24T01:29:07.501Z,23.42
2023-07-24T01:34:48.615Z,19.02
2023-07-24T01:38:01.318Z,21.67
2023-07-24T01:40:49.616Z,20.35
2023-07-24T01:43:37.004Z,21.25
2023-07-24T01:46:24.424Z,20.50
2023-07-24T01:49:11.681Z,21.60
2023-07-24T01:51:58.914Z,19.02
2023-07-24T01:54:46.159Z,18.92
2023-07-24T01:58:08.310Z,22.38
2023-07-24T02:00:58.700Z,18.42
2023-07-24T02:03:46.039Z,19.95
2023-07-24T02:06:48.772Z,20.15
2023-07-24T02:09:36.023Z,19.45
2023-07-24T02:12:23.239Z,21.92
2023-07-24T02:15:11.456Z,22.80
2023-07-24T02:18:01.096Z,21.73
2023-07-24T02:20:52.255Z,20.30
2023-07-24T02:23:39.491Z,20.92
2023-07-24T02:26:26.721Z,18.90
2023-07-24T02:29:14.018Z,18.10
2023-07-24T02:32:01.770Z,17.10
2023-07-24T02:34:53.221Z,17.25
2023-07-24T02:37:40.510Z,14.98
2023-07-24T02:40:27.936Z,16.05
2023-07-24T02:43:16.264Z,15.57
2023-07-24T02:46:04.110Z,17.83
2023-07-24T02:48:52.311Z,14.10
2023-07-24T02:51:39.508Z,13.50
2023-07-24T02:54:27.442Z,14.02
2023-07-24T02:57:14.613Z,14.15
2023-07-24T03:03:26.398Z,13.68
2023-07-24T03:06:13.961Z,16.73
2023-07-24T03:09:01.902Z,13.02
2023-07-24T03:12:12.200Z,12.85
2023-07-24T03:14:59.424Z,14.23
2023-07-24T03:17:46.707Z,12.82
2023-07-24T03:20:33.940Z,12.60
2023-07-24T03:23:21.541Z,11.82
2023-07-24T03:26:20.198Z,11.93
2023-07-24T03:29:07.776Z,11.23
2023-07-24T03:31:55.185Z,13.65
2023-07-24T03:34:42.476Z,13.82
2023-07-24T03:37:29.978Z,12.90
2023-07-24T03:40:17.376Z,12.35
2023-07-24T03:43:04.901Z,12.32
2023-07-24T03:45:52.111Z,14.90
2023-07-24T03:48:39.412Z,14.85
2023-07-24T03:52:05.819Z,15.23
2023-07-24T03:54:54.619Z,13.20
2023-07-24T03:57:41.999Z,13.20
2023-07-24T04:00:29.312Z,16.17
2023-07-24T04:03:17.241Z,14.73
2023-07-24T04:06:04.800Z,15.65
2023-07-24T04:08:52.444Z,14.68
2023-07-24T04:11:40.521Z,13.30
2023-07-24T04:14:27.893Z,14.00
2023-07-24T04:17:15.453Z,12.55
2023-07-24T04:20:02.862Z,12.30
2023-07-24T04:22:50.228Z,13.65
2023-07-24T04:25:37.562Z,14.45
2023-07-24T04:28:24.797Z,14.18
2023-07-24T04:31:12.112Z,13.50
2023-07-24T04:33:59.425Z,13.68
2023-07-24T04:40:11.477Z,11.23
2023-07-24T05:07:29.301Z,10.98
2023-07-24T05:10:16.750Z,11.17
2023-07-24T05:13:04.194Z,11.75
2023-07-24T05:15:51.616Z,11.70
2023-07-24T05:18:40.779Z,10.82
2023-07-24T05:21:28.279Z,11.38
2023-07-24T05:24:15.637Z,10.43
2023-07-24T05:30:26.394Z,11.85
2023-07-24T05:33:13.602Z,9.95
2023-07-24T05:36:02.100Z,10.65
2023-07-24T05:38:52.328Z,10.52
2023-07-24T05:41:41.406Z,9.35
2023-07-24T05:44:28.642Z,9.68
2023-07-24T05:47:17.211Z,9.02
2023-07-24T05:50:07.295Z,10.35
2023-07-24T05:52:54.487Z,11.20
2023-07-24T05:59:20.145Z,11.82
2023-07-24T06:19:12.520Z,9.38
2023-07-24T06:25:34.765Z,11.40
2023-07-24T06:28:27.497Z,11.27
2023-07-24T06:35:06.131Z,11.25
2023-07-24T06:38:14.391Z,9.47
2023-07-24T06:41:01.659Z,12.57
2023-07-24T06:43:48.912Z,12.18
2023-07-24T06:46:36.107Z,11.50
2023-07-24T06:49:23.269Z,10.90
2023-07-24T06:52:10.557Z,13.55
2023-07-24T06:54:59.373Z,11.35
2023-07-24T06:57:46.577Z,9.20
2023-07-24T07:00:33.884Z,12.70
2023-07-24T07:03:21.123Z,11.18
2023-07-24T07:09:15.780Z,10.55
2023-07-24T07:12:03.237Z,11.27
2023-07-24T07:49:13.852Z,12.15
2023-07-24T07:52:24.600Z,12.43
2023-07-24T08:02:33.350Z,13.18
2023-07-24T08:05:33.448Z,11.47
2023-07-24T08:08:53.614Z,10.82
2023-07-24T08:25:23.735Z,10.95
2023-07-24T08:31:37.865Z,9.95
2023-07-24T08:34:25.196Z,12.48
2023-07-24T08:37:12.867Z,11.25
2023-07-24T08:40:00.381Z,12.90
2023-07-24T08:42:51.688Z,11.38
2023-07-24T08:45:38.997Z,12.68
2023-07-24T08:48:30.404Z,12.80
2023-07-24T08:51:19.946Z,15.13
2023-07-24T08:54:08.523Z,15.02
2023-07-24T09:00:45.855Z,11.70
2023-07-24T09:03:34.803Z,13.80
2023-07-24T09:06:22.194Z,16.70
2023-07-24T09:09:16.224Z,14.60
2023-07-24T09:12:04.015Z,15.60
2023-07-24T09:15:06.708Z,13.57
2023-07-24T09:17:54.990Z,15.65
2023-07-24T09:20:44.713Z,12.40
2023-07-24T09:23:31.965Z,13.93
2023-07-24T09:26:19.242Z,12.43
2023-07-24T09:29:06.633Z,11.73
2023-07-24T09:31:54.214Z,13.77
2023-07-24T09:34:44.554Z,11.32
2023-07-24T09:37:34.144Z,11.48
2023-07-24T09:40:21.341Z,14.68
2023-07-24T09:49:09.506Z,9.75
2023-07-24T09:52:00.763Z,9.07
2023-07-24T09:55:06.168Z,11.15
2023-07-24T09:57:55.218Z,9.52
2023-07-24T10:00:43.311Z,9.02
2023-07-24T10:03:31.606Z,7.68
2023-07-24T10:06:19.279Z,7.88
2023-07-24T10:09:08.367Z,8.98
2023-07-24T10:11:57.087Z,9.70
2023-07-24T10:14:46.012Z,10.15
2023-07-24T10:37:50.189Z,12.25
2023-07-24T10:40:37.884Z,12.07
2023-07-24T10:43:26.437Z,14.85
2023-07-24T10:46:14.666Z,12.25
2023-07-24T10:49:03.241Z,14.25
2023-07-24T10:51:59.445Z,14.32
2023-07-24T10:54:52.160Z,14.63
2023-07-24T10:57:39.525Z,14.05
2023-07-24T11:00:28.940Z,17.42
2023-07-24T11:03:18.175Z,17.52
2023-07-24T11:06:06.080Z,15.35
2023-07-24T11:09:00.344Z,15.40
2023-07-24T11:11:47.539Z,16.30
2023-07-24T11:14:37.349Z,19.10
2023-07-24T11:17:37.107Z,14.90
2023-07-24T11:20:26.123Z,16.90
2023-07-24T11:23:14.332Z,16.15
2023-07-24T11:26:02.485Z,15.07
2023-07-24T11:28:53.644Z,14.68
2023-07-24T11:31:40.952Z,15.52
2023-07-24T11:34:28.356Z,17.55
2023-07-24T11:37:16.180Z,14.43
2023-07-24T11:40:09.948Z,11.82
2023-07-24T11:42:57.213Z,13.25
2023-07-24T11:45:45.086Z,15.52
2023-07-24T11:48:32.578Z,13.57
2023-07-24T11:51:20.503Z,13.18
2023-07-24T11:54:09.161Z,14.20
2023-07-24T11:56:56.477Z,13.95
2023-07-24T11:59:44.418Z,12.82
2023-07-24T12:02:35.615Z,12.98
2023-07-24T12:05:23.940Z,13.45
2023-07-24T12:08:12.108Z,11.15
2023-07-24T12:10:59.502Z,9.98
2023-07-24T12:13:47.103Z,9.75
2023-07-24T12:16:38.137Z,9.15
2023-07-24T12:19:25.425Z,10.25
2023-07-24T12:22:12.550Z,12.70
2023-07-24T12:24:59.845Z,9.80
2023-07-24T12:27:47.957Z,10.55
2023-07-24T12:30:35.263Z,10.18
2023-07-24T12:33:24.801Z,9.35
2023-07-24T12:36:11.986Z,9.52
2023-07-24T12:39:09.222Z,9.50
2023-07-24T12:41:56.460Z,9.73
2023-07-24T12:44:55.228Z,8.50
2023-07-24T12:47:43.451Z,9.27
2023-07-24T12:50:31.864Z,7.38
2023-07-24T12:53:23.075Z,8.48
2023-07-24T12:56:15.381Z,12.35
2023-07-24T12:59:03.186Z,8.93
2023-07-24T13:01:50.547Z,9.15
2023-07-24T13:04:37.813Z,8.70
2023-07-24T13:07:25.267Z,10.73
2023-07-24T13:10:12.669Z,9.10
2023-07-24T13:13:02.121Z,10.50
2023-07-24T13:15:49.760Z,11.07
2023-07-24T13:18:37.072Z,10.50
2023-07-24T13:21:24.797Z,12.35
2023-07-24T13:24:12.160Z,9.05
2023-07-24T13:26:59.478Z,8.75
2023-07-24T13:29:47.010Z,9.70
2023-07-24T13:32:34.435Z,8.52
2023-07-24T13:35:21.847Z,10.32
2023-07-24T13:38:09.541Z,9.65
2023-07-24T13:41:14.487Z,9.38
2023-07-24T13:44:19.572Z,10.63
2023-07-24T13:46:46.939Z,8.70
2023-07-24T13:49:17.107Z,8.27
2023-07-24T13:52:04.832Z,8.38
2023-07-24T13:54:52.109Z,8.45
2023-07-24T13:57:39.375Z,7.82
2023-07-24T14:00:27.624Z,9.38
2023-07-24T14:03:14.919Z,7.57
2023-07-24T14:06:02.265Z,10.93
2023-07-24T14:08:49.473Z,6.90
2023-07-24T14:11:36.802Z,7.15
2023-07-24T14:14:25.905Z,6.28
2023-07-24T14:17:15.660Z,7.10
2023-07-24T14:20:03.980Z,6.03
2023-07-24T14:22:51.259Z,7.25
2023-07-24T14:25:38.451Z,7.60
2023-07-24T14:28:25.744Z,7.07
2023-07-24T14:31:12.970Z,7.15
2023-07-24T14:34:00.261Z,8.98
2023-07-24T14:36:47.478Z,7.60
2023-07-24T14:39:35.205Z,7.35
2023-07-24T14:42:55.196Z,9.32
2023-07-24T14:45:42.594Z,7.50
2023-07-24T14:48:30.737Z,14.93
2023-07-24T14:51:18.756Z,7.43
2023-07-24T14:54:22.788Z,9.13
2023-07-24T14:57:23.718Z,8.75
2023-07-24T15:00:13.167Z,9.13
2023-07-24T15:03:00.533Z,7.55
2023-07-24T15:05:48.172Z,9.05
2023-07-24T15:08:36.169Z,8.77
2023-07-24T15:11:24.198Z,10.15
2023-07-24T15:14:11.498Z,11.07
2023-07-24T15:16:58.956Z,10.13
2023-07-24T15:19:46.434Z,12.00
2023-07-24T15:22:33.883Z,10.05
2023-07-24T15:25:21.973Z,8.23
2023-07-24T15:28:09.162Z,7.32
2023-07-24T15:30:56.467Z,8.90
2023-07-24T15:33:43.711Z,6.65
2023-07-24T15:36:31.835Z,7.93
2023-07-24T15:39:19.084Z,8.02
2023-07-24T15:42:07.718Z,6.72
2023-07-24T15:45:10.306Z,8.70
2023-07-24T15:47:57.718Z,7.78
2023-07-24T15:50:54.453Z,8.02
2023-07-24T15:57:31.181Z,8.80
2023-07-24T16:04:06.287Z,6.82
2023-07-24T16:13:39.834Z,9.45
2023-07-24T16:16:27.573Z,6.38
2023-07-24T16:19:19.173Z,8.73
2023-07-24T16:22:07.276Z,9.32
2023-07-24T16:24:54.511Z,8.10
2023-07-24T16:28:21.113Z,6.72
2023-07-24T16:31:08.868Z,8.25
2023-07-24T16:34:00.133Z,8.38
2023-07-24T16:36:47.723Z,7.18
2023-07-24T16:42:46.586Z,8.05
2023-07-24T16:45:36.538Z,8.55
2023-07-24T16:48:24.680Z,9.05
2023-07-24T16:51:12.073Z,7.90
2023-07-24T16:53:59.531Z,8.68
2023-07-24T16:56:46.683Z,10.32
2023-07-24T16:59:33.950Z,9.32
2023-07-24T17:02:21.614Z,8.43
2023-07-24T17:05:09.148Z,9.35
2023-07-24T17:14:17.669Z,8.00
2023-07-24T17:17:44.290Z,7.57
2023-07-24T17:23:31.741Z,9.07
2023-07-24T17:26:43.343Z,6.97
2023-07-24T17:29:33.362Z,6.90
2023-07-24T17:32:23.053Z,5.23
2023-07-24T17:39:06.182Z,5.55
2023-07-24T17:41:54.860Z,5.82
2023-07-24T17:44:43.281Z,5.15
2023-07-24T17:47:30.528Z,5.05
2023-07-24T17:50:18.132Z,4.05
2023-07-24T17:53:05.610Z,4.38
2023-07-24T17:55:52.922Z,4.07
2023-07-24T17:58:40.271Z,4.20
2023-07-24T18:01:27.667Z,5.13
2023-07-24T18:04:15.182Z,3.55
2023-07-24T18:07:02.589Z,4.18
2023-07-24T18:09:49.976Z,5.68
2023-07-24T18:12:37.914Z,3.80
2023-07-24T18:15:25.734Z,3.83
2023-07-24T18:18:12.976Z,5.30
2023-07-24T18:21:08.300Z,4.40
2023-07-24T18:23:57.934Z,6.47
2023-07-24T18:26:45.320Z,5.82
2023-07-24T18:29:33.772Z,4.40
2023-07-24T18:32:21.254Z,4.95
2023-07-24T18:35:08.811Z,5.15
2023-07-24T18:37:56.915Z,5.40
2023-07-24T18:40:44.254Z,5.63
2023-07-24T18:43:31.738Z,5.03
2023-07-24T18:46:19.193Z,6.10
2023-07-24T18:49:06.425Z,5.32
2023-07-24T18:51:53.706Z,7.97
2023-07-24T18:54:41.028Z,7.25
2023-07-24T18:57:29.126Z,5.55
2023-07-24T19:00:18.310Z,5.15
2023-07-24T19:03:05.701Z,6.85
2023-07-24T19:05:53.224Z,6.57
2023-07-24T19:08:40.558Z,5.60
2023-07-24T19:11:28.287Z,6.47
2023-07-24T19:14:15.929Z,4.63
2023-07-24T19:17:03.438Z,6.28
2023-07-24T19:19:50.702Z,6.30
2023-07-24T19:22:38.599Z,5.75
2023-07-24T19:25:25.948Z,5.00
2023-07-24T19:28:13.131Z,6.53
2023-07-24T19:31:00.411Z,6.57
2023-07-24T19:33:47.605Z,4.78
2023-07-24T19:36:34.814Z,4.93
2023-07-24T19:39:22.203Z,6.80
2023-07-24T19:42:11.672Z,6.47
2023-07-24T19:45:00.332Z,7.10
2023-07-24T19:47:47.737Z,6.22
2023-07-24T19:50:35.098Z,5.88
2023-07-24T19:53:25.045Z,6.95
2023-07-24T19:56:12.586Z,7.25
2023-07-24T19:58:59.880Z,6.43
2023-07-24T20:01:47.152Z,6.88
2023-07-24T20:04:36.819Z,6.13
2023-07-24T20:07:27.115Z,6.55
2023-07-24T20:10:14.290Z,8.90
2023-07-24T20:13:01.572Z,5.97
2023-07-24T20:15:48.820Z,7.38
2023-07-24T20:18:36.054Z,7.40
2023-07-24T20:21:23.286Z,6.00
2023-07-24T20:24:13.846Z,9.15
2023-07-24T20:27:01.494Z,8.38
2023-07-24T20:29:48.697Z,7.57
2023-07-24T20:32:36.749Z,8.45
2023-07-24T20:35:24.119Z,6.47
2023-07-24T20:38:24.891Z,6.32
2023-07-24T20:41:13.444Z,6.45
2023-07-24T20:44:00.853Z,7.13
2023-07-24T20:46:48.220Z,7.00
2023-07-24T20:49:35.456Z,8.60
2023-07-24T20:52:23.127Z,7.90
2023-07-24T20:55:10.538Z,7.38
2023-07-24T20:57:57.731Z,9.45
2023-07-24T21:00:44.908Z,9.57
2023-07-24T21:03:32.100Z,10.75
2023-07-24T21:06:19.450Z,6.57
2023-07-24T21:09:06.742Z,9.90
2023-07-24T21:11:54.015Z,10.90
2023-07-24T21:14:41.296Z,8.48
2023-07-24T21:17:28.524Z,10.45
2023-07-24T21:20:15.893Z,7.93
2023-07-24T21:23:03.102Z,9.77
2023-07-24T21:25:56.995Z,7.55
2023-07-24T21:28:44.588Z,12.02
2023-07-24T21:31:32.195Z,9.05
2023-07-24T21:34:21.025Z,12.30
2023-07-24T21:37:08.267Z,8.90
2023-07-24T21:39:56.355Z,10.45
2023-07-24T21:42:43.574Z,10.52
2023-07-24T21:45:30.833Z,9.25
2023-07-24T21:48:18.116Z,13.43
2023-07-24T21:51:06.034Z,10.68
2023-07-24T21:53:53.331Z,10.40
2023-07-24T21:56:40.663Z,10.55
2023-07-24T21:59:27.844Z,11.95
2023-07-24T22:02:15.189Z,10.25
2023-07-24T22:05:02.522Z,10.27
2023-07-24T22:07:50.431Z,11.32
2023-07-24T22:10:37.672Z,12.80
2023-07-24T22:13:24.964Z,12.93
2023-07-24T22:16:12.470Z,12.15
2023-07-24T22:18:59.829Z,9.90
2023-07-24T22:21:48.325Z,11.73
2023-07-24T22:24:37.757Z,10.82
2023-07-24T22:27:25.598Z,13.25
2023-07-24T22:30:13.447Z,12.50
2023-07-24T22:33:00.752Z,12.27
2023-07-24T22:35:48.526Z,10.68
2023-07-24T22:38:35.759Z,11.57
2023-07-24T22:41:22.966Z,9.75
2023-07-24T22:44:10.160Z,16.42
2023-07-24T22:46:57.545Z,11.38
2023-07-24T22:49:44.801Z,9.18
2023-07-24T22:52:32.662Z,11.65
2023-07-24T22:55:20.299Z,9.38
2023-07-24T22:58:08.449Z,12.02
2023-07-24T23:00:55.744Z,13.07
2023-07-24T23:03:43.244Z,8.48
2023-07-24T23:06:30.536Z,8.80
2023-07-24T23:09:18.134Z,10.35
2023-07-24T23:12:05.733Z,7.35
2023-07-24T23:14:53.298Z,9.30
2023-07-24T23:17:40.648Z,9.18
2023-07-24T23:20:27.807Z,8.23
2023-07-24T23:23:15.408Z,8.43
2023-07-24T23:26:03.706Z,10.23
2023-07-24T23:28:57.036Z,7.80
2023-07-24T23:31:44.270Z,10.15
2023-07-24T23:34:31.903Z,9.60
2023-07-24T23:37:19.104Z,9.02
2023-07-24T23:40:06.832Z,9.98
2023-07-24T23:42:54.068Z,8.10
2023-07-24T23:45:41.989Z,10.90
2023-07-24T23:48:29.347Z,9.25
2023-07-24T23:51:21.152Z,8.30
2023-07-24T23:54:08.497Z,14.60
2023-07-24T23:56:55.700Z,9.80
2023-07-24T23:59:42.860Z,7.10
